sensor_id;sensor_type;location;lat;lon;timestamp;P1;durP1;ratioP1;P2;durP2;ratioP2
40867;SDS011;26586;50.708;22.412;2023-03-23T17:46:42;35.33;;;19.88;;
40867;SDS011;26586;50.708;22.412;2023-03-23T17:49:10;30.48;;;18.17;;
40867;SDS011;26586;50.708;22.412;2023-03-23T17:51:36;39.67;;;19.80;;
40867;SDS011;26586;50.708;22.412;2023-03-23T17:54:02;30.38;;;15.75;;
40867;SDS011;26586;50.708;22.412;2023-03-23T17:56:28;26.02;;;14.95;;
40867;SDS011;26586;50.708;22.412;2023-03-23T17:58:55;38.70;;;19.05;;
40867;SDS011;26586;50.708;22.412;2023-03-23T18:01:21;56.53;;;27.73;;
40867;SDS011;26586;50.708;22.412;2023-03-23T18:03:47;66.70;;;30.17;;
40867;SDS011;26586;50.708;22.412;2023-03-23T18:06:13;72.60;;;34.38;;
40867;SDS011;26586;50.708;22.412;2023-03-23T18:08:40;65.35;;;30.23;;
40867;SDS011;26586;50.708;22.412;2023-03-23T18:11:06;51.80;;;25.93;;
40867;SDS011;26586;50.708;22.412;2023-03-23T18:13:33;20.98;;;12.82;;
40867;SDS011;26586;50.708;22.412;2023-03-23T18:16:00;12.88;;;8.48;;
40867;SDS011;26586;50.708;22.412;2023-03-23T18:18:28;8.18;;;5.07;;
40867;SDS011;26586;50.708;22.412;2023-03-23T18:20:55;9.82;;;4.97;;
40867;SDS011;26586;50.708;22.412;2023-03-23T18:23:23;19.20;;;8.82;;
40867;SDS011;26586;50.708;22.412;2023-03-23T18:25:50;23.02;;;9.50;;
40867;SDS011;26586;50.708;22.412;2023-03-23T18:28:18;30.48;;;14.35;;
40867;SDS011;26586;50.708;22.412;2023-03-23T18:30:45;37.22;;;19.35;;
40867;SDS011;26586;50.708;22.412;2023-03-23T18:33:17;34.47;;;20.25;;
40867;SDS011;26586;50.708;22.412;2023-03-23T18:35:45;27.20;;;15.48;;
40867;SDS011;26586;50.708;22.412;2023-03-23T18:38:13;19.10;;;11.48;;
40867;SDS011;26586;50.708;22.412;2023-03-23T18:40:42;26.73;;;14.20;;
40867;SDS011;26586;50.708;22.412;2023-03-23T18:43:10;37.97;;;19.58;;
40867;SDS011;26586;50.708;22.412;2023-03-23T18:45:36;28.92;;;15.48;;
40867;SDS011;26586;50.708;22.412;2023-03-23T18:48:04;22.10;;;13.95;;
40867;SDS011;26586;50.708;22.412;2023-03-23T18:50:31;23.92;;;12.23;;
40867;SDS011;26586;50.708;22.412;2023-03-23T18:52:58;17.17;;;10.23;;
40867;SDS011;26586;50.708;22.412;2023-03-23T18:55:24;14.13;;;8.17;;
40867;SDS011;26586;50.708;22.412;2023-03-23T18:57:50;20.20;;;14.52;;
40867;SDS011;26586;50.708;22.412;2023-03-23T19:00:16;29.08;;;13.88;;
40867;SDS011;26586;50.708;22.412;2023-03-23T19:02:43;43.42;;;22.35;;
40867;SDS011;26586;50.708;22.412;2023-03-23T19:05:10;49.15;;;22.90;;
40867;SDS011;26586;50.708;22.412;2023-03-23T19:07:37;52.15;;;26.40;;
40867;SDS011;26586;50.708;22.412;2023-03-23T19:10:03;45.58;;;22.58;;
40867;SDS011;26586;50.708;22.412;2023-03-23T19:14:56;44.73;;;21.83;;
40867;SDS011;26586;50.708;22.412;2023-03-23T19:17:22;47.42;;;23.25;;
40867;SDS011;26586;50.708;22.412;2023-03-23T19:19:49;62.33;;;24.80;;
40867;SDS011;26586;50.708;22.412;2023-03-23T19:22:15;63.65;;;24.40;;
40867;SDS011;26586;50.708;22.412;2023-03-23T19:24:42;61.15;;;23.25;;
40867;SDS011;26586;50.708;22.412;2023-03-23T19:27:08;58.40;;;23.27;;
40867;SDS011;26586;50.708;22.412;2023-03-23T19:29:39;111.93;;;55.22;;
40867;SDS011;26586;50.708;22.412;2023-03-23T19:32:06;90.78;;;50.17;;
40867;SDS011;26586;50.708;22.412;2023-03-23T19:34:33;79.97;;;44.90;;
40867;SDS011;26586;50.708;22.412;2023-03-23T19:37:00;48.13;;;28.98;;
40867;SDS011;26586;50.708;22.412;2023-03-23T19:39:27;18.00;;;12.43;;
40867;SDS011;26586;50.708;22.412;2023-03-23T19:41:53;20.50;;;11.35;;
40867;SDS011;26586;50.708;22.412;2023-03-23T19:44:20;21.00;;;12.18;;
40867;SDS011;26586;50.708;22.412;2023-03-23T19:46:47;27.25;;;19.88;;
40867;SDS011;26586;50.708;22.412;2023-03-23T19:49:13;24.15;;;15.10;;
40867;SDS011;26586;50.708;22.412;2023-03-23T19:51:40;22.02;;;14.70;;
40867;SDS011;26586;50.708;22.412;2023-03-23T19:54:06;111.95;;;52.83;;
40867;SDS011;26586;50.708;22.412;2023-03-23T19:56:32;75.18;;;39.10;;
40867;SDS011;26586;50.708;22.412;2023-03-23T20:01:26;26.73;;;14.65;;
40867;SDS011;26586;50.708;22.412;2023-03-23T20:03:53;74.25;;;35.80;;
40867;SDS011;26586;50.708;22.412;2023-03-23T20:06:21;60.38;;;20.00;;
40867;SDS011;26586;50.708;22.412;2023-03-23T20:08:47;41.83;;;19.75;;
40867;SDS011;26586;50.708;22.412;2023-03-23T20:11:15;72.13;;;33.15;;
40867;SDS011;26586;50.708;22.412;2023-03-23T20:13:43;29.25;;;11.43;;
40867;SDS011;26586;50.708;22.412;2023-03-23T20:16:11;15.07;;;7.18;;
40867;SDS011;26586;50.708;22.412;2023-03-23T20:18:37;18.55;;;9.15;;
40867;SDS011;26586;50.708;22.412;2023-03-23T20:21:08;22.08;;;9.23;;
40867;SDS011;26586;50.708;22.412;2023-03-23T20:23:35;15.85;;;8.30;;
40867;SDS011;26586;50.708;22.412;2023-03-23T20:26:04;14.95;;;7.28;;
40867;SDS011;26586;50.708;22.412;2023-03-23T20:28:37;10.30;;;6.78;;
40867;SDS011;26586;50.708;22.412;2023-03-23T20:31:08;10.55;;;6.90;;
40867;SDS011;26586;50.708;22.412;2023-03-23T20:33:38;15.10;;;8.15;;
40867;SDS011;26586;50.708;22.412;2023-03-23T20:36:05;23.23;;;12.25;;
40867;SDS011;26586;50.708;22.412;2023-03-23T20:38:36;17.63;;;9.88;;
40867;SDS011;26586;50.708;22.412;2023-03-23T20:41:04;59.45;;;42.65;;
40867;SDS011;26586;50.708;22.412;2023-03-23T20:43:33;23.40;;;16.13;;
40867;SDS011;26586;50.708;22.412;2023-03-23T20:46:04;16.55;;;12.52;;
40867;SDS011;26586;50.708;22.412;2023-03-23T20:48:32;12.50;;;8.20;;
40867;SDS011;26586;50.708;22.412;2023-03-23T20:51:00;14.52;;;10.88;;
40867;SDS011;26586;50.708;22.412;2023-03-23T20:53:28;18.45;;;9.15;;
40867;SDS011;26586;50.708;22.412;2023-03-23T20:55:57;16.20;;;8.90;;
40867;SDS011;26586;50.708;22.412;2023-03-23T20:58:26;13.52;;;7.45;;
40867;SDS011;26586;50.708;22.412;2023-03-23T21:00:55;13.60;;;7.25;;
40867;SDS011;26586;50.708;22.412;2023-03-23T21:03:22;19.63;;;10.00;;
40867;SDS011;26586;50.708;22.412;2023-03-23T21:05:49;15.23;;;9.00;;
40867;SDS011;26586;50.708;22.412;2023-03-23T21:08:16;12.95;;;7.47;;
40867;SDS011;26586;50.708;22.412;2023-03-23T21:10:43;9.70;;;6.43;;
40867;SDS011;26586;50.708;22.412;2023-03-23T21:13:11;12.07;;;9.18;;
40867;SDS011;26586;50.708;22.412;2023-03-23T21:15:38;14.32;;;9.60;;
40867;SDS011;26586;50.708;22.412;2023-03-23T21:18:05;14.07;;;10.73;;
40867;SDS011;26586;50.708;22.412;2023-03-23T21:20:32;14.75;;;9.38;;
40867;SDS011;26586;50.708;22.412;2023-03-23T21:25:26;18.02;;;10.10;;
40867;SDS011;26586;50.708;22.412;2023-03-23T21:27:53;26.80;;;13.32;;
40867;SDS011;26586;50.708;22.412;2023-03-23T21:30:21;19.60;;;10.65;;
40867;SDS011;26586;50.708;22.412;2023-03-23T21:32:47;18.58;;;11.27;;
40867;SDS011;26586;50.708;22.412;2023-03-23T21:35:15;11.10;;;6.53;;
40867;SDS011;26586;50.708;22.412;2023-03-23T21:37:41;13.85;;;10.02;;
40867;SDS011;26586;50.708;22.412;2023-03-23T21:40:09;13.30;;;8.13;;
40867;SDS011;26586;50.708;22.412;2023-03-23T21:42:39;13.35;;;8.77;;
40867;SDS011;26586;50.708;22.412;2023-03-23T21:45:07;16.52;;;10.07;;
40867;SDS011;26586;50.708;22.412;2023-03-23T21:47:36;14.93;;;9.65;;
40867;SDS011;26586;50.708;22.412;2023-03-23T21:52:31;15.00;;;8.57;;
40867;SDS011;26586;50.708;22.412;2023-03-23T21:54:58;13.18;;;7.95;;
40867;SDS011;26586;50.708;22.412;2023-03-23T21:57:27;10.18;;;6.60;;
40867;SDS011;26586;50.708;22.412;2023-03-23T21:59:54;11.27;;;7.10;;
40867;SDS011;26586;50.708;22.412;2023-03-23T22:02:21;9.98;;;6.38;;
40867;SDS011;26586;50.708;22.412;2023-03-23T22:04:47;8.98;;;6.15;;
40867;SDS011;26586;50.708;22.412;2023-03-23T22:07:14;11.60;;;5.88;;
40867;SDS011;26586;50.708;22.412;2023-03-23T22:09:41;8.27;;;5.70;;
40867;SDS011;26586;50.708;22.412;2023-03-23T22:12:12;9.18;;;5.55;;
40867;SDS011;26586;50.708;22.412;2023-03-23T22:14:39;9.88;;;6.13;;
40867;SDS011;26586;50.708;22.412;2023-03-23T22:17:06;14.25;;;5.90;;
40867;SDS011;26586;50.708;22.412;2023-03-23T22:19:33;9.18;;;5.25;;
40867;SDS011;26586;50.708;22.412;2023-03-23T22:22:00;7.75;;;5.30;;
40867;SDS011;26586;50.708;22.412;2023-03-23T22:24:28;8.18;;;5.25;;
40867;SDS011;26586;50.708;22.412;2023-03-23T22:26:56;8.70;;;5.68;;
40867;SDS011;26586;50.708;22.412;2023-03-23T22:29:22;19.65;;;5.88;;
40867;SDS011;26586;50.708;22.412;2023-03-23T22:31:48;10.43;;;5.53;;
40867;SDS011;26586;50.708;22.412;2023-03-23T22:34:15;13.05;;;6.18;;
40867;SDS011;26586;50.708;22.412;2023-03-23T22:36:41;12.77;;;5.55;;
40867;SDS011;26586;50.708;22.412;2023-03-23T22:39:08;11.63;;;7.28;;
40867;SDS011;26586;50.708;22.412;2023-03-23T22:41:35;14.95;;;10.02;;
40867;SDS011;26586;50.708;22.412;2023-03-23T22:44:05;15.38;;;9.73;;
40867;SDS011;26586;50.708;22.412;2023-03-23T22:46:37;15.18;;;8.30;;
40867;SDS011;26586;50.708;22.412;2023-03-23T22:51:29;11.03;;;6.83;;
40867;SDS011;26586;50.708;22.412;2023-03-23T22:53:56;10.65;;;6.72;;
40867;SDS011;26586;50.708;22.412;2023-03-23T22:56:22;10.90;;;6.70;;
40867;SDS011;26586;50.708;22.412;2023-03-23T22:58:49;10.82;;;6.15;;
40867;SDS011;26586;50.708;22.412;2023-03-23T23:01:18;11.40;;;7.32;;
40867;SDS011;26586;50.708;22.412;2023-03-23T23:03:46;9.63;;;6.20;;
40867;SDS011;26586;50.708;22.412;2023-03-23T23:06:13;10.25;;;6.30;;
40867;SDS011;26586;50.708;22.412;2023-03-23T23:08:41;9.68;;;5.95;;
40867;SDS011;26586;50.708;22.412;2023-03-23T23:11:08;7.88;;;5.28;;
40867;SDS011;26586;50.708;22.412;2023-03-23T23:13:37;8.18;;;4.82;;
40867;SDS011;26586;50.708;22.412;2023-03-23T23:18:32;10.82;;;4.45;;
40867;SDS011;26586;50.708;22.412;2023-03-23T23:21:00;7.88;;;4.65;;
40867;SDS011;26586;50.708;22.412;2023-03-23T23:23:30;6.95;;;3.80;;
40867;SDS011;26586;50.708;22.412;2023-03-23T23:25:56;5.77;;;3.33;;
40867;SDS011;26586;50.708;22.412;2023-03-23T23:28:23;6.10;;;4.25;;
40867;SDS011;26586;50.708;22.412;2023-03-23T23:30:49;9.23;;;5.05;;
40867;SDS011;26586;50.708;22.412;2023-03-23T23:33:16;8.50;;;5.22;;
40867;SDS011;26586;50.708;22.412;2023-03-23T23:35:43;10.40;;;6.20;;
40867;SDS011;26586;50.708;22.412;2023-03-23T23:38:10;7.65;;;5.30;;
40867;SDS011;26586;50.708;22.412;2023-03-23T23:40:37;14.82;;;8.07;;
40867;SDS011;26586;50.708;22.412;2023-03-23T23:43:05;16.45;;;8.32;;
40867;SDS011;26586;50.708;22.412;2023-03-23T23:45:32;18.45;;;9.32;;
40867;SDS011;26586;50.708;22.412;2023-03-23T23:47:58;21.20;;;9.90;;
40867;SDS011;26586;50.708;22.412;2023-03-23T23:50:25;19.60;;;10.43;;
40867;SDS011;26586;50.708;22.412;2023-03-23T23:52:51;22.65;;;9.43;;
40867;SDS011;26586;50.708;22.412;2023-03-23T23:55:18;21.27;;;9.07;;
40867;SDS011;26586;50.708;22.412;2023-03-23T23:57:46;18.65;;;9.52;;
